EGBBLFOK

Guest
Details From EGBB - Birmingham
To LFOK - Chalons Vatry
Flight Number -
Tags Generated
Created
Modified
Stats Distance 315 nm / 584 km
Max Altitude 0 ft / 0 m
Waypoints 3
Social Downloads 2
Likes 0
Share VATSIM

Download

Looking for another format? Having issues loading an existing format? Contact us
Advertisement - Login to hide

Notes

Generated

Route

EGBB CAV LFOK

ID Type Via Altitude Latitude Longitude Leg Dist Tot Dist Heading (true) Name
O EGBB APT - 0 ft / 0 m 52.45113˚ -1.75493˚ - 0 nm - -
CAV VOR - 0 ft / 0 m 48.78108˚ 4.14694˚ 314 nm 314 nm 132° / 137° VATRY VOR-DME
O LFOK APT - 0 ft / 0 m 48.77959˚ 4.15841˚ 0 nm 315 nm 101° / 101° -

Altitude Profile

Advertisement - Login to hide

Weather


0- 5 10 15 20 25 30 35+ Temperature / ° C

Clouds and Precipitation
Forecast for 2018-05-26 00:00 UTC. Updated 3 minutes ago

Ground ~20,000 ft ~40,000 ft Winds

EGBB

Details ICAO EGBB (BHX)
Name Birmingham
Region United Kingdom
Timezone Europe/London (UTC+1.0)
Stats Elevation 327 ft / 100 m (AMSL)
Location 52.455966° -1.750378°
Runways 1
Magnetic Variation 1.072° W

METAR

EGBB 252320Z 04008KT 0600 R15/1300 FG OVC002 14/14 Q1021

Decode

TAF

TAF AMD EGBB 251952Z 2519/2618 03005KT 1500 BR OVC003 TEMPO 2519/2609 1000 OVC001 PROB30 TEMPO 2521/2607 0300 FG BECMG 2609/2612 9999 NSW SCT025

Decode

Departure Runways

ID Width Length Bearing (true) Bearing (mag) Surface Threshold Offset Overrun Length
15 151 ft / 46 m 8,477 ft / 2,584 m 145.87° 146.94° Asphalt 925 ft / 282 m 0 ft / 0 m
33 151 ft / 46 m 8,477 ft / 2,584 m 325.89° 326.96° Asphalt 958 ft / 292 m 0 ft / 0 m

LFOK

Details ICAO LFOK (XCR)
Name Chalons Vatry
Region France
Timezone Europe/Paris (UTC+2.0)
Stats Elevation 587 ft / 179 m (AMSL)
Location 48.776207° 4.184166°
Runways 1
Magnetic Variation 1.195° E

METAR

LFOK 252300Z AUTO 07006KT CAVOK 19/14 Q1016 TEMPO 2000 TSRA BKN060CB

Decode

TAF

TAF LFOK 251700Z 2518/2618 07007KT CAVOK TEMPO 2520/2601 4000 SHRA BKN060CB PROB30 TEMPO 2520/2601 2000 TSRA BKN060CB BECMG 2609/2611 13010KT PROB30 TEMPO 2613/2618 2000 TSRAGR BKN060CB

Decode

Destination Runways

ID Width Length Bearing (true) Bearing (mag) Surface Threshold Offset Overrun Length
10 148 ft / 45 m 12,632 ft / 3,850 m 101.24° 100.05° Concrete 361 ft / 110 m 0 ft / 0 m
28 148 ft / 45 m 12,632 ft / 3,850 m 281.28° 280.09° Concrete 361 ft / 110 m 0 ft / 0 m

Approach Navaids

Runway Type Ident Frequency Range Bearing (true) Bearing (mag) Slope Elevation
10 Localiser CVD 111.30 MHz 18 nm / 33 km 101.28° 100.09° - 587 ft / 179 m (AMSL)
10 Glidescope CVD 111.30 MHz 10 nm / 19 km 101.26° 100.06° 3.00° 613 ft / 187 m (AMSL)
10 DME CVD 111.30 MHz 18 nm / 33 km - - - 587 ft / 179 m (AMSL)
28 Localiser CVL 109.55 MHz 18 nm / 33 km 281.23° 280.04° - 587 ft / 179 m (AMSL)
28 Glidescope CVL 109.55 MHz 10 nm / 19 km 281.26° 280.06° 3.00° 637 ft / 194 m (AMSL)
28 DME CVL 109.55 MHz 18 nm / 33 km - - - 587 ft / 179 m (AMSL)